SANTA FE DAM CA US current weather conditions

sailwx.info

Wind from 162 at 6 knots gusting 53

Air temperature 13.3° C
Dewpoint 13.3° C

Last reported at 2015-Mar-30 10:57 UTC.
Time now 2015-Mar-30 12:56 UTC

Location: N 34°08' W 117°57'.
View on Google Maps.

See reports from other nearby stations

  
Tides and Currents Weather Stations Pressure Air Temp Water Temp Dewpoint Dewpoint Depression Visibility Wind Speed Wind Dir Waves Ship Positions
date/time (UTC)wind fromknots sea level pressurealtimeterstation pressurevisibilityair tempwater tempwave heightnotes
2015-Mar-30 10:57 162 6 gusting 53 13.3
2015-Mar-30 09:57 014 0 gusting 2 12.8
2015-Mar-30 08:57 038 0 gusting 2 13.3
2015-Mar-30 07:57 257 1 gusting 3 13.9
2015-Mar-30 06:57 254 2 gusting 5 15.6
2015-Mar-30 05:57 232 2 gusting 5 16.1
2015-Mar-30 04:57 223 3 gusting 5 17.8
2015-Mar-30 03:57 212 3 gusting 6 20.0
2015-Mar-30 02:57 244 3 gusting 6 21.7
2015-Mar-30 01:57 220 4 gusting 12 26.1
2015-Mar-30 00:57 233 6 gusting 13 28.3
2015-Mar-29 23:57 215 6 gusting 13 32.2
2015-Mar-29 22:57 204 6 gusting 13 33.3
2015-Mar-29 21:57 235 6 gusting 13 32.2
2015-Mar-29 20:57 227 6 gusting 12 32.8
2015-Mar-29 19:57 229 5 gusting 10 32.2
2015-Mar-29 18:57 129 4 gusting 10 31.1
2015-Mar-29 17:57 035 1 gusting 8 29.4
2015-Mar-29 16:57 079 5 gusting 8 25.0
2015-Mar-29 15:57 090 2 gusting 6 20.0
2015-Mar-29 14:57 255 0 gusting 5 14.4
2015-Mar-29 13:57 264 2 gusting 6 13.3
2015-Mar-29 12:57 283 3 gusting 6 13.9
2015-Mar-29 11:57 257 1 gusting 4 12.8
2015-Mar-29 10:57 073 1 gusting 6 13.9
2015-Mar-29 09:57 279 2 gusting 6 15.0
2015-Mar-29 08:57 098 0 gusting 2 13.9
2015-Mar-29 07:57 175 0 gusting 3 14.4
2015-Mar-29 06:57 109 2 gusting 6 16.7
2015-Mar-29 05:57 285 3 gusting 5 18.3
2015-Mar-29 04:57 248 2 gusting 5 17.8
2015-Mar-29 03:57 211 3 gusting 5 20.6
2015-Mar-29 02:57 233 2 gusting 6 23.3
2015-Mar-29 01:57 224 4 gusting 10 27.8
2015-Mar-29 00:57 231 6 gusting 14 30.6
2015-Mar-28 23:57 211 7 gusting 14 32.2
2015-Mar-28 22:57 224 6 gusting 14 34.4
2015-Mar-28 21:57 231 6 gusting 13 33.9
2015-Mar-28 20:57 231 6 gusting 13 32.2
2015-Mar-28 19:57 233 6 gusting 13 31.7
2015-Mar-28 18:57 259 4 gusting 11 30.6
2015-Mar-28 17:57 255 3 gusting 7 29.4
2015-Mar-28 16:57 124 2 gusting 6 26.1
2015-Mar-28 15:57 167 1 gusting 5 22.8
2015-Mar-28 14:57 098 1 gusting 3 18.3
2015-Mar-28 13:57 357 0 gusting 2 11.7
2015-Mar-28 12:57 153 1 gusting 9 14.4